createdAt,value
2022-10-11T00:00:53.684Z,69.82
2022-10-11T00:03:33.867Z,69.79
2022-10-11T00:06:03.827Z,69.56
2022-10-11T00:08:33.477Z,69.40
2022-10-11T00:11:05.038Z,69.41
2022-10-11T00:13:33.272Z,69.74
2022-10-11T00:16:01.210Z,69.45
2022-10-11T00:18:28.914Z,69.58
2022-10-11T00:21:06.511Z,69.10
2022-10-11T00:23:34.505Z,69.29
2022-10-11T00:26:06.687Z,69.16
2022-10-11T00:28:35.351Z,69.25
2022-10-11T00:31:07.611Z,68.84
2022-10-11T00:33:35.706Z,68.78
2022-10-11T00:36:04.331Z,68.68
2022-10-11T00:38:32.247Z,67.98
2022-10-11T00:41:00.555Z,68.11
2022-10-11T00:43:30.844Z,68.21
2022-10-11T00:45:58.247Z,68.02
2022-10-11T00:48:33.762Z,68.10
2022-10-11T00:51:06.428Z,68.08
2022-10-11T00:53:34.580Z,67.81
2022-10-11T00:56:20.677Z,68.03
2022-10-11T00:58:48.634Z,68.11
2022-10-11T01:01:16.558Z,68.06
2022-10-11T01:03:44.956Z,67.90
2022-10-11T01:06:12.687Z,67.53
2022-10-11T01:08:40.792Z,67.76
2022-10-11T01:11:17.530Z,67.69
2022-10-11T01:14:23.099Z,67.78
2022-10-11T01:16:57.859Z,67.98
2022-10-11T01:19:34.363Z,67.69
2022-10-11T01:22:42.849Z,67.80
2022-10-11T01:25:43.860Z,67.49
2022-10-11T01:28:37.218Z,67.24
2022-10-11T01:31:28.091Z,67.35
2022-10-11T01:34:32.469Z,67.16
2022-10-11T01:37:13.930Z,67.24
2022-10-11T01:39:51.828Z,67.14
2022-10-11T01:42:20.894Z,67.30
2022-10-11T01:44:49.961Z,66.86
2022-10-11T01:47:25.213Z,66.78
2022-10-11T01:50:02.157Z,67.00
2022-10-11T01:52:34.144Z,66.91
2022-10-11T01:55:28.291Z,66.63
2022-10-11T01:58:21.056Z,66.37
2022-10-11T02:01:06.798Z,66.66
2022-10-11T02:03:54.200Z,66.41
2022-10-11T02:06:56.978Z,66.62
2022-10-11T02:09:42.863Z,66.72
2022-10-11T02:12:16.441Z,66.34
2022-10-11T02:14:49.511Z,66.40
2022-10-11T02:17:24.416Z,66.56
2022-10-11T02:19:56.821Z,66.78
2022-10-11T02:22:35.717Z,66.82
2022-10-11T02:25:09.501Z,66.85
2022-10-11T02:27:41.144Z,66.66
2022-10-11T02:30:10.193Z,66.63
2022-10-11T02:32:41.821Z,66.46
2022-10-11T02:35:11.814Z,66.66
2022-10-11T02:38:02.943Z,67.00
2022-10-11T02:40:40.734Z,67.02
2022-10-11T02:43:19.593Z,66.86
2022-10-11T02:46:01.566Z,66.94
2022-10-11T02:48:30.830Z,66.97
2022-10-11T02:50:59.450Z,66.82
2022-10-11T02:53:27.296Z,66.92
2022-10-11T02:55:56.146Z,67.11
2022-10-11T02:58:24.748Z,67.19
2022-10-11T03:00:52.402Z,67.27
2022-10-11T03:03:20.232Z,67.14
2022-10-11T03:05:48.144Z,67.25
2022-10-11T03:08:17.686Z,67.50
2022-10-11T03:10:45.547Z,67.63
2022-10-11T03:13:17.859Z,67.43
2022-10-11T03:16:02.942Z,67.70
2022-10-11T03:18:34.789Z,67.49
2022-10-11T03:21:02.559Z,67.58
2022-10-11T03:23:30.137Z,67.76
2022-10-11T03:25:57.780Z,67.90
2022-10-11T03:28:25.552Z,67.66
2022-10-11T03:30:53.200Z,67.76
2022-10-11T03:33:20.837Z,67.49
2022-10-11T03:35:49.703Z,67.54
2022-10-11T03:38:22.081Z,67.29
2022-10-11T03:40:50.160Z,66.91
2022-10-11T03:43:17.794Z,67.09
2022-10-11T03:45:45.323Z,66.93
2022-10-11T03:48:13.154Z,67.29
2022-10-11T03:50:40.861Z,67.20
2022-10-11T03:53:08.935Z,67.05
2022-10-11T03:55:40.345Z,66.80
2022-10-11T03:58:09.097Z,66.88
2022-10-11T04:00:37.175Z,66.96
2022-10-11T04:03:05.025Z,67.06
2022-10-11T04:05:32.490Z,66.72
2022-10-11T04:08:00.158Z,66.90
2022-10-11T04:10:28.183Z,66.75
2022-10-11T04:12:55.800Z,67.17
2022-10-11T04:15:23.607Z,66.99
2022-10-11T04:17:51.278Z,67.13
2022-10-11T04:20:18.982Z,67.08
2022-10-11T04:22:46.465Z,67.11
2022-10-11T04:25:14.565Z,66.72
2022-10-11T04:27:42.715Z,66.75
2022-10-11T04:30:11.630Z,67.01
2022-10-11T04:32:58.062Z,66.67
2022-10-11T04:35:25.574Z,66.65
2022-10-11T04:37:53.155Z,66.94
2022-10-11T04:40:20.901Z,67.25
2022-10-11T04:42:50.645Z,66.78
2022-10-11T04:45:18.388Z,66.65
2022-10-11T04:47:46.420Z,66.60
2022-10-11T04:50:13.991Z,66.50
2022-10-11T04:52:41.537Z,66.40
2022-10-11T04:55:10.675Z,66.58
2022-10-11T04:57:38.245Z,66.50
2022-10-11T05:00:07.213Z,66.51
2022-10-11T05:02:35.338Z,66.48
2022-10-11T05:05:02.887Z,66.49
2022-10-11T05:07:30.379Z,66.67
2022-10-11T05:09:58.206Z,66.26
2022-10-11T05:12:25.805Z,66.26
2022-10-11T05:14:53.894Z,66.22
2022-10-11T05:17:22.054Z,65.57
2022-10-11T05:19:49.584Z,65.62
2022-10-11T05:22:17.059Z,65.70
2022-10-11T05:24:44.816Z,65.35
2022-10-11T05:27:12.247Z,65.15
2022-10-11T05:29:39.755Z,64.89
2022-10-11T05:32:07.720Z,64.63
2022-10-11T05:34:35.271Z,64.29
2022-10-11T05:37:03.147Z,64.35
2022-10-11T05:39:30.912Z,64.02
2022-10-11T05:41:58.427Z,64.24
2022-10-11T05:44:26.306Z,63.97
2022-10-11T05:46:53.734Z,63.91
2022-10-11T05:49:21.345Z,63.55
2022-10-11T05:51:49.038Z,63.27
2022-10-11T05:54:16.534Z,63.18
2022-10-11T05:56:44.123Z,62.74
2022-10-11T05:59:11.886Z,62.79
2022-10-11T06:01:39.658Z,62.62
2022-10-11T06:04:08.316Z,62.57
2022-10-11T06:06:36.040Z,62.68
2022-10-11T06:09:03.758Z,62.25
2022-10-11T06:11:31.239Z,62.65
2022-10-11T06:13:59.261Z,61.91
2022-10-11T06:16:27.641Z,61.89
2022-10-11T06:18:56.805Z,61.95
2022-10-11T06:21:24.665Z,61.70
2022-10-11T06:23:58.242Z,61.90
2022-10-11T06:26:28.547Z,62.13
2022-10-11T06:28:56.501Z,61.88
2022-10-11T06:31:24.741Z,62.21
2022-10-11T06:33:52.263Z,62.48
2022-10-11T06:36:19.823Z,62.12
2022-10-11T06:38:47.715Z,62.54
2022-10-11T06:41:22.390Z,62.29
2022-10-11T06:43:50.954Z,62.32
2022-10-11T06:46:20.633Z,62.52
2022-10-11T06:48:49.137Z,62.94
2022-10-11T06:51:20.279Z,62.47
2022-10-11T06:53:56.449Z,61.85
2022-10-11T06:56:26.639Z,61.50
2022-10-11T06:58:56.309Z,61.48
2022-10-11T07:01:24.667Z,60.84
2022-10-11T07:03:55.423Z,60.30
2022-10-11T07:06:26.968Z,60.72
2022-10-11T07:08:55.623Z,60.59
2022-10-11T07:11:26.557Z,60.01
2022-10-11T07:14:00.620Z,60.29
2022-10-11T07:16:29.115Z,60.15
2022-10-11T07:19:01.228Z,60.06
2022-10-11T07:21:31.958Z,60.64
2022-10-11T07:24:00.395Z,60.61
2022-10-11T07:26:32.421Z,60.54
2022-10-11T07:29:01.815Z,60.47
2022-10-11T07:31:29.455Z,60.44
2022-10-11T07:33:57.069Z,60.29
2022-10-11T07:36:26.502Z,60.09
2022-10-11T07:38:54.058Z,60.23
2022-10-11T07:41:22.180Z,60.59
2022-10-11T07:43:51.110Z,60.10
2022-10-11T07:46:19.100Z,60.32
2022-10-11T07:48:46.803Z,60.35
2022-10-11T07:51:21.860Z,60.61
2022-10-11T07:53:55.856Z,60.38
2022-10-11T07:56:29.221Z,60.94
2022-10-11T07:59:00.611Z,60.96
2022-10-11T08:01:29.121Z,60.67
2022-10-11T08:03:57.513Z,60.74
2022-10-11T08:06:30.249Z,60.79
2022-10-11T08:09:00.654Z,60.73
2022-10-11T08:11:46.576Z,61.04
2022-10-11T08:14:14.458Z,60.42
2022-10-11T08:16:41.987Z,60.64
2022-10-11T08:19:10.824Z,60.91
2022-10-11T08:21:38.666Z,60.41
2022-10-11T08:24:07.065Z,60.29
2022-10-11T08:26:35.674Z,60.48
2022-10-11T08:29:05.403Z,59.96
2022-10-11T08:31:35.222Z,60.28
2022-10-11T08:34:02.888Z,60.31
2022-10-11T08:36:30.665Z,60.81
2022-10-11T08:38:58.902Z,60.82
2022-10-11T08:41:39.384Z,60.95
2022-10-11T08:45:08.998Z,60.35
2022-10-11T08:47:36.461Z,61.20
2022-10-11T08:50:19.843Z,62.96
2022-10-11T08:53:04.753Z,63.06
2022-10-11T08:55:40.407Z,63.17
2022-10-11T08:58:15.071Z,64.49
2022-10-11T09:00:46.261Z,64.52
2022-10-11T09:03:25.507Z,63.97
2022-10-11T09:06:16.315Z,63.64
2022-10-11T09:09:43.205Z,62.88
2022-10-11T09:12:32.382Z,64.11
2022-10-11T09:15:42.364Z,63.81
2022-10-11T09:18:19.467Z,63.71
2022-10-11T09:20:58.804Z,62.69
2022-10-11T09:23:35.428Z,62.04
2022-10-11T09:26:11.173Z,63.11
2022-10-11T09:29:01.435Z,63.13
2022-10-11T09:31:30.208Z,63.16
2022-10-11T09:34:06.331Z,62.68
2022-10-11T09:36:57.112Z,63.80
2022-10-11T09:39:38.973Z,63.60
2022-10-11T09:42:12.173Z,64.29
2022-10-11T09:44:51.854Z,63.36
2022-10-11T09:47:25.135Z,65.38
2022-10-11T09:50:13.876Z,64.88
2022-10-11T09:52:58.101Z,64.77
2022-10-11T09:55:33.936Z,64.68
2022-10-11T09:58:02.266Z,65.69
2022-10-11T10:00:33.893Z,65.90
2022-10-11T10:03:04.680Z,64.95
2022-10-11T10:05:36.918Z,66.01
2022-10-11T10:08:09.788Z,65.80
2022-10-11T10:10:55.856Z,64.69
2022-10-11T10:13:56.798Z,65.08
2022-10-11T10:16:34.805Z,65.31
2022-10-11T10:19:24.123Z,66.62
2022-10-11T10:21:55.461Z,66.20
2022-10-11T10:24:40.512Z,67.04
2022-10-11T10:27:14.281Z,67.89
2022-10-11T10:29:42.161Z,67.58
2022-10-11T10:32:22.538Z,67.26
2022-10-11T10:35:07.518Z,67.91
2022-10-11T10:37:59.536Z,68.23
2022-10-11T10:41:17.875Z,67.88
2022-10-11T10:43:54.244Z,66.42
2022-10-11T10:46:40.227Z,67.93
2022-10-11T10:49:48.919Z,68.68
2022-10-11T10:52:50.632Z,68.44
2022-10-11T10:55:44.557Z,66.25
2022-10-11T10:58:56.523Z,68.98
2022-10-11T11:01:29.431Z,70.30
2022-10-11T11:03:59.726Z,70.50
2022-10-11T11:06:54.118Z,69.78
2022-10-11T11:10:07.132Z,69.82
2022-10-11T11:12:55.566Z,70.93
2022-10-11T11:15:48.422Z,70.48
2022-10-11T11:18:37.092Z,71.68
2022-10-11T11:21:48.180Z,69.62
2022-10-11T11:24:58.393Z,71.25
2022-10-11T11:27:51.033Z,71.35
2022-10-11T11:30:45.144Z,72.10
2022-10-11T11:33:49.150Z,72.37
2022-10-11T11:36:43.394Z,71.79
2022-10-11T11:39:36.797Z,74.05
2022-10-11T11:42:31.809Z,73.58
2022-10-11T11:45:23.686Z,74.32
2022-10-11T11:48:11.785Z,74.35
2022-10-11T11:50:47.094Z,74.16
2022-10-11T11:53:25.146Z,74.39
2022-10-11T11:56:07.350Z,70.87
2022-10-11T11:59:23.486Z,75.72
2022-10-11T12:02:23.699Z,76.24
2022-10-11T12:04:52.408Z,76.01
2022-10-11T12:07:23.796Z,75.75
2022-10-11T12:10:18.573Z,77.86
2022-10-11T12:12:46.303Z,78.97
2022-10-11T12:15:26.205Z,79.46
2022-10-11T12:17:53.705Z,78.46
2022-10-11T12:20:29.987Z,76.95
2022-10-11T12:23:05.777Z,78.62
2022-10-11T12:25:44.674Z,78.28
2022-10-11T12:28:43.035Z,78.63
2022-10-11T12:31:26.726Z,76.58
2022-10-11T12:37:20.337Z,78.74
2022-10-11T12:39:57.764Z,78.85
2022-10-11T12:42:36.947Z,80.55
2022-10-11T12:45:14.062Z,79.60
2022-10-11T12:48:04.068Z,79.08
2022-10-11T12:50:37.309Z,78.54
2022-10-11T12:54:08.221Z,79.61
2022-10-11T12:57:17.677Z,79.64
2022-10-11T12:59:49.316Z,79.65
2022-10-11T13:02:36.370Z,79.47
2022-10-11T13:05:26.639Z,76.60
2022-10-11T13:07:58.751Z,77.75
2022-10-11T13:10:53.939Z,78.13
2022-10-11T13:13:32.129Z,77.61
2022-10-11T13:16:21.474Z,79.11
2022-10-11T13:18:50.828Z,78.65
2022-10-11T13:21:29.716Z,77.30
2022-10-11T13:24:18.965Z,76.14
2022-10-11T13:26:50.541Z,77.75
2022-10-11T13:29:39.725Z,77.52
2022-10-11T13:32:23.864Z,78.20
2022-10-11T13:34:58.620Z,75.70
2022-10-11T13:37:29.887Z,77.11
2022-10-11T13:39:58.562Z,76.47
2022-10-11T13:42:31.394Z,77.40
2022-10-11T13:45:00.543Z,78.43
2022-10-11T13:47:31.604Z,78.18
2022-10-11T13:50:17.562Z,77.52
2022-10-11T13:53:08.470Z,78.42
2022-10-11T13:55:59.906Z,78.74
2022-10-11T13:58:46.877Z,79.72
2022-10-11T14:01:40.734Z,79.88
2022-10-11T14:04:12.778Z,78.95
2022-10-11T14:06:50.825Z,78.65
2022-10-11T14:09:38.952Z,77.72
2022-10-11T14:12:33.568Z,76.80
2022-10-11T14:15:04.783Z,75.95
2022-10-11T14:17:45.655Z,75.61
2022-10-11T14:20:39.681Z,75.36
2022-10-11T14:23:07.846Z,75.03
2022-10-11T14:25:35.693Z,74.88
2022-10-11T14:28:05.742Z,74.71
2022-10-11T14:30:33.483Z,74.89
2022-10-11T14:33:02.665Z,74.88
2022-10-11T14:35:35.033Z,75.30
2022-10-11T14:38:02.805Z,75.06
2022-10-11T14:40:31.876Z,75.30
2022-10-11T14:42:59.480Z,75.70
2022-10-11T14:45:28.381Z,75.83
2022-10-11T14:47:56.589Z,76.42
2022-10-11T14:50:52.751Z,76.33
2022-10-11T14:53:20.287Z,76.65
2022-10-11T14:55:48.409Z,77.19
2022-10-11T14:58:17.902Z,77.78
2022-10-11T15:00:46.302Z,78.10
2022-10-11T15:03:15.471Z,78.57
2022-10-11T15:05:43.033Z,78.70
2022-10-11T15:08:14.861Z,78.52
2022-10-11T15:10:43.700Z,79.05
2022-10-11T15:13:11.289Z,79.57
2022-10-11T15:15:41.495Z,79.59
2022-10-11T15:18:17.664Z,79.89
2022-10-11T15:20:46.671Z,80.13
2022-10-11T15:23:14.509Z,80.59
2022-10-11T15:25:42.781Z,80.69
2022-10-11T15:28:28.095Z,80.96
2022-10-11T15:30:57.081Z,81.25
2022-10-11T15:33:25.375Z,81.40
2022-10-11T15:35:53.741Z,81.88
2022-10-11T15:38:25.332Z,81.52
2022-10-11T15:40:54.211Z,82.02
2022-10-11T15:43:24.932Z,82.15
2022-10-11T15:45:54.371Z,82.23
2022-10-11T15:48:26.355Z,83.44
2022-10-11T15:50:54.907Z,83.67
2022-10-11T15:53:31.068Z,84.03
2022-10-11T15:56:07.202Z,84.13
2022-10-11T15:58:39.289Z,84.34
2022-10-11T16:01:19.898Z,84.70
2022-10-11T16:03:49.884Z,85.06
2022-10-11T16:06:19.746Z,85.11
2022-10-11T16:08:48.059Z,85.36
2022-10-11T16:11:16.124Z,85.53
2022-10-11T16:13:43.636Z,85.96
2022-10-11T16:16:12.299Z,85.90
2022-10-11T16:18:40.754Z,87.06
2022-10-11T16:21:13.365Z,86.88
2022-10-11T16:23:41.111Z,87.12
2022-10-11T16:26:13.805Z,87.80
2022-10-11T16:28:42.642Z,88.17
2022-10-11T16:31:18.171Z,88.56
2022-10-11T16:33:46.419Z,89.20
2022-10-11T16:36:40.570Z,89.87
2022-10-11T16:39:18.376Z,90.18
2022-10-11T16:41:47.244Z,90.57
2022-10-11T16:44:17.891Z,90.45
2022-10-11T16:46:48.350Z,90.42
2022-10-11T16:49:22.131Z,89.93
2022-10-11T16:51:55.955Z,90.52
2022-10-11T16:54:23.777Z,90.98
2022-10-11T16:56:51.490Z,91.10
2022-10-11T16:59:20.027Z,91.63
2022-10-11T17:01:47.851Z,92.51
2022-10-11T17:04:16.089Z,92.72
2022-10-11T17:06:44.037Z,92.68
2022-10-11T17:09:12.670Z,92.72
2022-10-11T17:11:40.830Z,92.68
2022-10-11T17:14:09.255Z,93.66
2022-10-11T17:16:36.748Z,93.73
2022-10-11T17:19:05.478Z,94.00
2022-10-11T17:21:32.922Z,93.57
2022-10-11T17:24:00.713Z,94.43
2022-10-11T17:26:28.321Z,94.42
2022-10-11T17:28:59.563Z,94.84
2022-10-11T17:31:30.458Z,94.69
2022-10-11T17:34:00.952Z,94.82
2022-10-11T17:36:34.155Z,94.92
2022-10-11T17:39:07.107Z,94.31
2022-10-11T17:41:35.694Z,94.29
2022-10-11T17:44:04.389Z,94.46
2022-10-11T17:46:32.882Z,94.71
2022-10-11T17:49:05.553Z,94.55
2022-10-11T17:51:34.170Z,94.71
2022-10-11T17:54:02.407Z,95.04
2022-10-11T17:56:35.200Z,95.79
2022-10-11T17:59:06.472Z,95.29
2022-10-11T18:01:34.441Z,95.86
2022-10-11T18:04:05.953Z,96.22
2022-10-11T18:06:39.758Z,96.53
2022-10-11T18:09:07.440Z,97.07
2022-10-11T18:11:35.406Z,96.93
2022-10-11T18:14:04.568Z,97.27
2022-10-11T18:16:33.021Z,97.34
2022-10-11T18:19:04.887Z,97.78
2022-10-11T18:21:34.927Z,98.13
2022-10-11T18:24:15.066Z,98.52
2022-10-11T18:26:46.951Z,98.20
2022-10-11T18:29:14.640Z,98.32
2022-10-11T18:31:42.768Z,98.42
2022-10-11T18:34:13.018Z,98.50
2022-10-11T18:36:40.998Z,98.34
2022-10-11T18:39:13.360Z,98.25
2022-10-11T18:41:44.572Z,98.19
2022-10-11T18:44:15.206Z,98.54
2022-10-11T18:46:44.147Z,98.42
2022-10-11T18:49:13.547Z,98.48
2022-10-11T18:51:42.053Z,98.42
2022-10-11T18:54:15.342Z,98.93
2022-10-11T18:56:46.250Z,99.16
2022-10-11T18:59:14.102Z,99.18
2022-10-11T19:01:44.748Z,99.15
2022-10-11T19:04:17.963Z,99.32
2022-10-11T19:06:48.768Z,99.38
2022-10-11T19:09:22.531Z,99.44
2022-10-11T19:11:53.674Z,99.58
2022-10-11T19:14:28.471Z,99.40
2022-10-11T19:16:57.219Z,99.94
2022-10-11T19:19:29.673Z,99.91
2022-10-11T19:21:58.485Z,100.00
2022-10-11T19:24:29.270Z,99.89
2022-10-11T19:27:02.609Z,99.71
2022-10-11T19:29:31.566Z,100.00
2022-10-11T19:32:03.006Z,100.00
2022-10-11T19:34:32.718Z,100.00
2022-10-11T19:37:01.246Z,100.00
2022-10-11T19:39:30.104Z,100.00
2022-10-11T19:41:57.926Z,100.00
2022-10-11T19:44:25.548Z,100.00
2022-10-11T19:46:53.455Z,100.00
2022-10-11T19:49:25.239Z,100.00
2022-10-11T19:51:55.226Z,100.00
2022-10-11T19:54:23.916Z,100.00
2022-10-11T19:56:51.503Z,100.00
2022-10-11T19:59:19.710Z,100.00
2022-10-11T20:01:52.268Z,100.00
2022-10-11T20:04:50.981Z,100.00
2022-10-11T20:07:08.752Z,100.00
2022-10-11T20:09:36.739Z,100.00
2022-10-11T20:12:05.158Z,100.00
2022-10-11T20:14:33.023Z,100.00
2022-10-11T20:17:00.609Z,100.00
2022-10-11T20:19:31.012Z,100.00
2022-10-11T20:22:00.580Z,100.00
2022-10-11T20:24:32.809Z,100.00
2022-10-11T20:27:06.332Z,100.00
2022-10-11T20:29:35.424Z,100.00
2022-10-11T20:32:02.966Z,100.00
2022-10-11T20:34:31.153Z,100.00
2022-10-11T20:36:58.768Z,100.00
2022-10-11T20:39:26.987Z,100.00
2022-10-11T20:41:54.968Z,100.00
2022-10-11T20:44:23.125Z,100.00
2022-10-11T20:46:50.727Z,100.00
2022-10-11T20:49:19.987Z,100.00
2022-10-11T20:51:48.610Z,100.00
2022-10-11T20:54:16.907Z,100.00
2022-10-11T20:56:45.028Z,100.00
2022-10-11T20:59:12.985Z,100.00
2022-10-11T21:01:41.990Z,100.00
2022-10-11T21:04:19.068Z,100.00
2022-10-11T21:06:48.986Z,100.00
2022-10-11T21:09:17.433Z,100.00
2022-10-11T21:11:45.574Z,100.00
2022-10-11T21:14:13.497Z,100.00
2022-10-11T21:16:41.341Z,100.00
2022-10-11T21:19:15.175Z,100.00
2022-10-11T21:21:43.975Z,100.00
2022-10-11T21:24:11.546Z,100.00
2022-10-11T21:26:39.395Z,100.00
2022-10-11T21:29:08.471Z,100.00
2022-10-11T21:31:36.442Z,100.00
2022-10-11T21:34:05.291Z,100.00
2022-10-11T21:36:33.803Z,100.00
2022-10-11T21:39:01.532Z,100.00
2022-10-11T21:41:30.418Z,100.00
2022-10-11T21:43:58.606Z,100.00
2022-10-11T21:46:54.216Z,100.00
2022-10-11T21:49:18.612Z,100.00
2022-10-11T21:51:46.193Z,100.00
2022-10-11T21:54:14.735Z,100.00
2022-10-11T21:56:42.522Z,100.00
2022-10-11T21:59:12.522Z,100.00
2022-10-11T22:01:41.937Z,100.00
2022-10-11T22:04:10.915Z,100.00
2022-10-11T22:06:39.487Z,100.00
2022-10-11T22:09:08.915Z,100.00
2022-10-11T22:11:37.395Z,100.00
2022-10-11T22:14:05.846Z,100.00
2022-10-11T22:16:34.776Z,100.00
2022-10-11T22:19:03.069Z,100.00
2022-10-11T22:21:31.827Z,100.00
2022-10-11T22:24:01.084Z,100.00
2022-10-11T22:26:31.584Z,100.00
2022-10-11T22:29:00.704Z,100.00
2022-10-11T22:31:30.935Z,100.00
2022-10-11T22:34:01.174Z,100.00
2022-10-11T22:36:30.643Z,100.00
2022-10-11T22:38:58.725Z,100.00
2022-10-11T22:41:26.690Z,100.00
2022-10-11T22:43:54.347Z,100.00
2022-10-11T22:46:21.831Z,100.00
2022-10-11T22:48:49.616Z,100.00
2022-10-11T22:51:17.336Z,100.00
2022-10-11T22:53:44.929Z,100.00
2022-10-11T22:56:12.721Z,100.00
2022-10-11T22:58:40.179Z,100.00
2022-10-11T23:01:10.509Z,100.00
2022-10-11T23:03:38.683Z,100.00
2022-10-11T23:06:06.846Z,100.00
2022-10-11T23:08:34.393Z,100.00
2022-10-11T23:11:07.204Z,100.00
2022-10-11T23:13:35.547Z,100.00
2022-10-11T23:16:11.781Z,100.00
2022-10-11T23:18:39.841Z,100.00
2022-10-11T23:21:08.379Z,100.00
2022-10-11T23:23:36.020Z,100.00
2022-10-11T23:26:06.024Z,100.00
2022-10-11T23:28:34.770Z,100.00
2022-10-11T23:31:08.426Z,100.00
2022-10-11T23:33:36.434Z,100.00
2022-10-11T23:36:04.330Z,100.00
2022-10-11T23:38:31.961Z,100.00
2022-10-11T23:40:59.713Z,100.00
2022-10-11T23:43:27.227Z,100.00
2022-10-11T23:45:55.891Z,100.00
2022-10-11T23:48:23.769Z,100.00
2022-10-11T23:50:51.326Z,100.00
2022-10-11T23:53:18.886Z,100.00
2022-10-11T23:55:46.696Z,100.00
2022-10-11T23:58:14.161Z,100.00
